sensor_id;sensor_type;location;lat;lon;timestamp;pressure;altitude;pressure_sealevel;temperature;humidity
45789;BME280;31492;54.856;26.318;2022-08-19T01:48:33;1001.1;;;21.3;100
45789;BME280;31492;54.856;26.318;2022-08-19T01:53:29;1001;;;20.1;100
45789;BME280;31492;54.856;26.318;2022-08-19T01:58:27;1001;;;20;100
45789;BME280;31492;54.856;26.318;2022-08-19T02:03:25;1001;;;20;100
45789;BME280;31492;54.856;26.318;2022-08-19T02:08:26;1001;;;19.9;100
45789;BME280;31492;54.856;26.318;2022-08-19T02:13:23;1001.1;;;19.8;100
45789;BME280;31492;54.856;26.318;2022-08-19T02:18:29;1001.2;;;19.6;100
45789;BME280;31492;54.856;26.318;2022-08-19T02:23:17;1001.2;;;19.6;100
45789;BME280;31492;54.856;26.318;2022-08-19T02:28:33;1001.3;;;19.5;100
45789;BME280;31492;54.856;26.318;2022-08-19T02:33:19;1001.2;;;19.4;100
45789;BME280;31492;54.856;26.318;2022-08-19T02:38:25;1001.2;;;19.3;100
45789;BME280;31492;54.856;26.318;2022-08-19T02:43:27;1001.2;;;19.2;100
45789;BME280;31492;54.856;26.318;2022-08-19T02:48:27;1001.2;;;19.1;100
45789;BME280;31492;54.856;26.318;2022-08-19T02:53:27;1001.3;;;19;100
45789;BME280;31492;54.856;26.318;2022-08-19T02:58:27;1001.3;;;19;100
45789;BME280;31492;54.856;26.318;2022-08-19T03:03:27;1001.4;;;19;100
45789;BME280;31492;54.856;26.318;2022-08-19T03:08:27;1001.5;;;18.9;100
45789;BME280;31492;54.856;26.318;2022-08-19T03:13:23;1001.6;;;18.9;100
45789;BME280;31492;54.856;26.318;2022-08-19T03:18:23;1001.6;;;18.9;100
45789;BME280;31492;54.856;26.318;2022-08-19T03:23:29;1001.7;;;19;100
45789;BME280;31492;54.856;26.318;2022-08-19T03:28:25;1001.8;;;18.9;100
45789;BME280;31492;54.856;26.318;2022-08-19T03:33:23;1001.8;;;19;100
45789;BME280;31492;54.856;26.318;2022-08-19T03:38:25;1001.8;;;19;100
45789;BME280;31492;54.856;26.318;2022-08-19T03:43:31;1001.8;;;19;100
45789;BME280;31492;54.856;26.318;2022-08-19T03:48:27;1001.8;;;19.1;100
45789;BME280;31492;54.856;26.318;2022-08-19T03:53:27;1001.9;;;19.1;100
45789;BME280;31492;54.856;26.318;2022-08-19T03:58:29;1002;;;19.1;100
45789;BME280;31492;54.856;26.318;2022-08-19T04:03:27;1002;;;19;100
45789;BME280;31492;54.856;26.318;2022-08-19T04:08:21;1002.1;;;19.1;100
45789;BME280;31492;54.856;26.318;2022-08-19T04:13:31;1002.1;;;19.1;100
45789;BME280;31492;54.856;26.318;2022-08-19T04:18:31;1002.2;;;19;100
45789;BME280;31492;54.856;26.318;2022-08-19T04:23:27;1002.2;;;18.9;100
45789;BME280;31492;54.856;26.318;2022-08-19T04:28:25;1002.2;;;18.8;100
45789;BME280;31492;54.856;26.318;2022-08-19T04:33:23;1002.2;;;18.6;100
45789;BME280;31492;54.856;26.318;2022-08-19T04:38:29;1002.3;;;18.7;100
45789;BME280;31492;54.856;26.318;2022-08-19T04:43:29;1002.2;;;18.9;100
45789;BME280;31492;54.856;26.318;2022-08-19T04:48:25;1002.2;;;19.1;100
45789;BME280;31492;54.856;26.318;2022-08-19T04:53:25;1002.2;;;19.3;100
45789;BME280;31492;54.856;26.318;2022-08-19T04:58:31;1002.2;;;19.4;100
45789;BME280;31492;54.856;26.318;2022-08-19T05:03:23;1002.2;;;19.4;100
45789;BME280;31492;54.856;26.318;2022-08-19T05:08:27;1002.2;;;19.6;100
45789;BME280;31492;54.856;26.318;2022-08-19T05:13:29;1002.2;;;19.8;100
45789;BME280;31492;54.856;26.318;2022-08-19T05:18:29;1002.2;;;19.9;100
45789;BME280;31492;54.856;26.318;2022-08-19T05:23:29;1002.2;;;20;100
45789;BME280;31492;54.856;26.318;2022-08-19T05:28:29;1002.3;;;20.2;100
45789;BME280;31492;54.856;26.318;2022-08-19T05:33:27;1002.3;;;20.2;100
45789;BME280;31492;54.856;26.318;2022-08-19T05:38:29;1002.4;;;20.3;100
45789;BME280;31492;54.856;26.318;2022-08-19T05:43:25;1002.4;;;20.5;100
45789;BME280;31492;54.856;26.318;2022-08-19T05:48:29;1002.4;;;20.7;100
45789;BME280;31492;54.856;26.318;2022-08-19T05:53:29;1002.4;;;20.8;100
45789;BME280;31492;54.856;26.318;2022-08-19T05:58:29;1002.4;;;21;100
45789;BME280;31492;54.856;26.318;2022-08-19T06:03:25;1002.4;;;21.1;100
45789;BME280;31492;54.856;26.318;2022-08-19T06:08:21;1002.4;;;21.4;100
45789;BME280;31492;54.856;26.318;2022-08-19T06:13:29;1002.3;;;21.5;100
45789;BME280;31492;54.856;26.318;2022-08-19T06:18:27;1002.4;;;21.6;100
45789;BME280;31492;54.856;26.318;2022-08-19T06:23:27;1002.4;;;21.8;100
45789;BME280;31492;54.856;26.318;2022-08-19T06:28:25;1002.4;;;22.1;100
45789;BME280;31492;54.856;26.318;2022-08-19T06:33:25;1002.4;;;22.5;100
45789;BME280;31492;54.856;26.318;2022-08-19T06:38:27;1002.4;;;22.9;100
45789;BME280;31492;54.856;26.318;2022-08-19T06:43:29;1002.4;;;23.5;100
45789;BME280;31492;54.856;26.318;2022-08-19T06:48:29;1002.4;;;24.2;100
45789;BME280;31492;54.856;26.318;2022-08-19T06:53:25;1002.4;;;25.3;100
45789;BME280;31492;54.856;26.318;2022-08-19T06:58:23;1002.4;;;26.4;100
45789;BME280;31492;54.856;26.318;2022-08-19T07:03:23;1002.4;;;27.2;100
45789;BME280;31492;54.856;26.318;2022-08-19T07:08:27;1002.4;;;28.1;100
45789;BME280;31492;54.856;26.318;2022-08-19T07:13:27;1002.4;;;28.8;88.4
45789;BME280;31492;54.856;26.318;2022-08-19T07:18:21;1002.3;;;29.3;79.6
45789;BME280;31492;54.856;26.318;2022-08-19T07:23:23;1002.3;;;29.7;79.8
45789;BME280;31492;54.856;26.318;2022-08-19T07:28:29;1002.2;;;30.4;83.8
45789;BME280;31492;54.856;26.318;2022-08-19T07:33:19;1002.2;;;31.2;70.8
45789;BME280;31492;54.856;26.318;2022-08-19T07:38:27;1002.2;;;31.8;63
45789;BME280;31492;54.856;26.318;2022-08-19T07:43:25;1002.2;;;32.4;59.5
45789;BME280;31492;54.856;26.318;2022-08-19T07:48:24;1002.2;;;33;63
45789;BME280;31492;54.856;26.318;2022-08-19T07:53:23;1002.1;;;33.7;55.7
45789;BME280;31492;54.856;26.318;2022-08-19T07:58:25;1002.2;;;33.9;47.7
45789;BME280;31492;54.856;26.318;2022-08-19T08:03:26;1002.2;;;34.6;47.2
45789;BME280;31492;54.856;26.318;2022-08-19T08:08:27;1002.2;;;35.3;44.5
45789;BME280;31492;54.856;26.318;2022-08-19T08:13:23;1002.1;;;35.7;40.9
45789;BME280;31492;54.856;26.318;2022-08-19T08:18:27;1002.1;;;36.1;41.5
45789;BME280;31492;54.856;26.318;2022-08-19T08:23:27;1002.2;;;36.5;37.2
45789;BME280;31492;54.856;26.318;2022-08-19T08:28:29;1002.1;;;36.8;36.9
45789;BME280;31492;54.856;26.318;2022-08-19T08:33:22;1002.1;;;37.2;35.8
45789;BME280;31492;54.856;26.318;2022-08-19T08:38:23;1002.1;;;37.6;36.5
45789;BME280;31492;54.856;26.318;2022-08-19T08:43:30;1002.1;;;38.2;32.9
45789;BME280;31492;54.856;26.318;2022-08-19T08:48:32;1002.1;;;38.3;33
45789;BME280;31492;54.856;26.318;2022-08-19T08:53:23;1002;;;38.5;33.6
45789;BME280;31492;54.856;26.318;2022-08-19T08:58:26;1002;;;38.7;31.2
45789;BME280;31492;54.856;26.318;2022-08-19T09:03:26;1002.1;;;38.8;31.3
45789;BME280;31492;54.856;26.318;2022-08-19T09:08:45;1002.1;;;38.7;32.4
45789;BME280;31492;54.856;26.318;2022-08-19T09:13:41;1002;;;38.9;31.1
45789;BME280;31492;54.856;26.318;2022-08-19T09:18:38;1002;;;38.9;32.2
45789;BME280;31492;54.856;26.318;2022-08-19T09:23:13;1002;;;39.2;29.9
45789;BME280;31492;54.856;26.318;2022-08-19T09:28:21;1001.9;;;39.3;29.8
45789;BME280;31492;54.856;26.318;2022-08-19T09:33:23;1001.8;;;39.4;31.5
45789;BME280;31492;54.856;26.318;2022-08-19T09:38:27;1001.8;;;39.5;31.2
45789;BME280;31492;54.856;26.318;2022-08-19T09:43:27;1001.8;;;40;28
45789;BME280;31492;54.856;26.318;2022-08-19T09:48:21;1001.8;;;40;27.9
45789;BME280;31492;54.856;26.318;2022-08-19T09:53:23;1001.8;;;40.2;26.9
45789;BME280;31492;54.856;26.318;2022-08-19T09:58:29;1001.8;;;40.4;26.3
45789;BME280;31492;54.856;26.318;2022-08-19T10:03:21;1001.9;;;39.9;25.4
45789;BME280;31492;54.856;26.318;2022-08-19T10:08:30;1001.8;;;39.7;26.3
45789;BME280;31492;54.856;26.318;2022-08-19T10:13:19;1001.8;;;39.9;26.9
45789;BME280;31492;54.856;26.318;2022-08-19T10:18:25;1001.8;;;40;27.1
45789;BME280;31492;54.856;26.318;2022-08-19T10:23:27;1001.8;;;40.1;26.2
45789;BME280;31492;54.856;26.318;2022-08-19T10:28:27;1001.8;;;40.1;26.7
45789;BME280;31492;54.856;26.318;2022-08-19T10:33:23;1001.8;;;40;25.9
45789;BME280;31492;54.856;26.318;2022-08-19T10:38:27;1001.8;;;40.2;26.1
45789;BME280;31492;54.856;26.318;2022-08-19T10:43:23;1001.8;;;40;26.1
45789;BME280;31492;54.856;26.318;2022-08-19T10:48:29;1001.8;;;40.2;25.9
45789;BME280;31492;54.856;26.318;2022-08-19T10:53:29;1001.8;;;40.1;25
45789;BME280;31492;54.856;26.318;2022-08-19T10:58:29;1001.8;;;40;24.8
45789;BME280;31492;54.856;26.318;2022-08-19T11:03:29;1001.8;;;39.8;25.4
45789;BME280;31492;54.856;26.318;2022-08-19T11:08:25;1001.9;;;39.9;25.3
45789;BME280;31492;54.856;26.318;2022-08-19T11:13:30;1001.9;;;40;25.5
45789;BME280;31492;54.856;26.318;2022-08-19T11:18:29;1001.8;;;39.8;25
45789;BME280;31492;54.856;26.318;2022-08-19T11:23:27;1001.8;;;39.9;25
45789;BME280;31492;54.856;26.318;2022-08-19T11:28:27;1001.8;;;39.7;25.7
45789;BME280;31492;54.856;26.318;2022-08-19T11:33:27;1001.8;;;39.8;25.4
45789;BME280;31492;54.856;26.318;2022-08-19T11:38:25;1001.8;;;39.9;25
45789;BME280;31492;54.856;26.318;2022-08-19T11:43:29;1001.7;;;39.7;25.1
45789;BME280;31492;54.856;26.318;2022-08-19T11:48:29;1001.6;;;39.6;26.4
45789;BME280;31492;54.856;26.318;2022-08-19T11:53:23;1001.6;;;39.6;25.6
45789;BME280;31492;54.856;26.318;2022-08-19T11:58:21;1001.7;;;39.1;25.8
45789;BME280;31492;54.856;26.318;2022-08-19T12:03:27;1001.7;;;39.3;25.7
45789;BME280;31492;54.856;26.318;2022-08-19T12:08:27;1001.7;;;39.4;25.3
45789;BME280;31492;54.856;26.318;2022-08-19T12:13:29;1001.6;;;39.2;25.4
45789;BME280;31492;54.856;26.318;2022-08-19T12:18:25;1001.6;;;39.1;27.2
45789;BME280;31492;54.856;26.318;2022-08-19T12:23:25;1001.5;;;39.2;27.4
45789;BME280;31492;54.856;26.318;2022-08-19T12:28:30;1001.5;;;38.9;26.9
45789;BME280;31492;54.856;26.318;2022-08-19T12:33:23;1001.5;;;39.1;26.3
45789;BME280;31492;54.856;26.318;2022-08-19T12:38:31;1001.5;;;39.2;24.4
45789;BME280;31492;54.856;26.318;2022-08-19T12:43:27;1001.5;;;39;25.3
45789;BME280;31492;54.856;26.318;2022-08-19T12:48:25;1001.5;;;38.8;25.1
45789;BME280;31492;54.856;26.318;2022-08-19T12:53:29;1001.4;;;38.8;26.2
45789;BME280;31492;54.856;26.318;2022-08-19T12:58:31;1001.3;;;38.6;26.7
45789;BME280;31492;54.856;26.318;2022-08-19T13:03:27;1001.3;;;38.3;26.2
45789;BME280;31492;54.856;26.318;2022-08-19T13:08:25;1001.2;;;38.2;26.4
45789;BME280;31492;54.856;26.318;2022-08-19T13:13:25;1001.2;;;38.1;27.1
45789;BME280;31492;54.856;26.318;2022-08-19T13:18:25;1001.1;;;38;27.4
45789;BME280;31492;54.856;26.318;2022-08-19T13:23:23;1001;;;37.6;27.8
45789;BME280;31492;54.856;26.318;2022-08-19T13:28:29;1001;;;37.2;28.1
45789;BME280;31492;54.856;26.318;2022-08-19T13:33:21;1001;;;36.6;30
45789;BME280;31492;54.856;26.318;2022-08-19T13:38:25;1000.9;;;36.1;28.8
45789;BME280;31492;54.856;26.318;2022-08-19T13:43:26;1000.8;;;35.7;30.3
45789;BME280;31492;54.856;26.318;2022-08-19T13:48:29;1000.7;;;35.2;31
45789;BME280;31492;54.856;26.318;2022-08-19T13:53:25;1000.8;;;34.5;32.2
45789;BME280;31492;54.856;26.318;2022-08-19T13:58:25;1000.8;;;33.9;32.3
45789;BME280;31492;54.856;26.318;2022-08-19T14:03:26;1000.8;;;33.4;34.4
45789;BME280;31492;54.856;26.318;2022-08-19T14:08:25;1000.8;;;32.9;36
45789;BME280;31492;54.856;26.318;2022-08-19T14:13:31;1000.8;;;32.4;37.8
45789;BME280;31492;54.856;26.318;2022-08-19T14:18:17;1000.9;;;31.9;38.3
45789;BME280;31492;54.856;26.318;2022-08-19T14:23:29;1001;;;31.6;38
45789;BME280;31492;54.856;26.318;2022-08-19T14:28:25;1001;;;31.4;37.3
45789;BME280;31492;54.856;26.318;2022-08-19T14:33:19;1001;;;31.2;38.6
45789;BME280;31492;54.856;26.318;2022-08-19T14:38:27;1001;;;30.9;40.5
45789;BME280;31492;54.856;26.318;2022-08-19T14:43:27;1001.1;;;30.5;43.1
45789;BME280;31492;54.856;26.318;2022-08-19T14:48:23;1001.1;;;30.3;44
45789;BME280;31492;54.856;26.318;2022-08-19T14:53:29;1001.1;;;30.1;46.1
45789;BME280;31492;54.856;26.318;2022-08-19T14:58:23;1001.2;;;29.9;48.2
45789;BME280;31492;54.856;26.318;2022-08-19T15:03:28;1001.2;;;29.8;50.7
45789;BME280;31492;54.856;26.318;2022-08-19T15:08:28;1001.2;;;29.6;53.9
45789;BME280;31492;54.856;26.318;2022-08-19T15:13:21;1001.3;;;29.5;57.7
45789;BME280;31492;54.856;26.318;2022-08-19T15:18:27;1001.3;;;29.4;58
45789;BME280;31492;54.856;26.318;2022-08-19T15:23:29;1001.3;;;29.2;59.2
45789;BME280;31492;54.856;26.318;2022-08-19T15:28:27;1001.3;;;29;62.5
45789;BME280;31492;54.856;26.318;2022-08-19T15:33:25;1001.3;;;28.8;66.5
45789;BME280;31492;54.856;26.318;2022-08-19T15:38:27;1001.3;;;28.6;69.5
45789;BME280;31492;54.856;26.318;2022-08-19T15:43:25;1001.4;;;28.5;71.6
45789;BME280;31492;54.856;26.318;2022-08-19T15:48:21;1001.4;;;28.3;75.4
45789;BME280;31492;54.856;26.318;2022-08-19T15:53:23;1001.4;;;28.2;77
45789;BME280;31492;54.856;26.318;2022-08-19T15:58:27;1001.5;;;28.1;74.7
45789;BME280;31492;54.856;26.318;2022-08-19T16:03:19;1001.4;;;27.9;76.5
45789;BME280;31492;54.856;26.318;2022-08-19T16:08:21;1001.4;;;27.7;80.2
45789;BME280;31492;54.856;26.318;2022-08-19T16:13:23;1001.4;;;27.6;81
45789;BME280;31492;54.856;26.318;2022-08-19T16:18:29;1001.4;;;27.5;83.5
45789;BME280;31492;54.856;26.318;2022-08-19T16:23:25;1001.4;;;27.4;84.7
45789;BME280;31492;54.856;26.318;2022-08-19T16:28:23;1001.5;;;27.2;88.6
45789;BME280;31492;54.856;26.318;2022-08-19T16:33:25;1001.5;;;27.1;90.2
45789;BME280;31492;54.856;26.318;2022-08-19T16:38:27;1001.6;;;26.9;92.8
45789;BME280;31492;54.856;26.318;2022-08-19T16:43:29;1001.6;;;26.8;95.5
45789;BME280;31492;54.856;26.318;2022-08-19T16:48:28;1001.6;;;26.6;100
45789;BME280;31492;54.856;26.318;2022-08-19T16:53:29;1001.7;;;26.4;100
45789;BME280;31492;54.856;26.318;2022-08-19T16:58:28;1001.7;;;26.2;100
45789;BME280;31492;54.856;26.318;2022-08-19T17:03:21;1001.7;;;25.9;100
45789;BME280;31492;54.856;26.318;2022-08-19T17:08:25;1001.8;;;25.6;100
45789;BME280;31492;54.856;26.318;2022-08-19T17:13:29;1001.8;;;25.4;100
45789;BME280;31492;54.856;26.318;2022-08-19T17:18:27;1001.8;;;25.3;100
45789;BME280;31492;54.856;26.318;2022-08-19T17:23:21;1001.8;;;25.1;100
45789;BME280;31492;54.856;26.318;2022-08-19T17:28:24;1001.9;;;24.8;100
45789;BME280;31492;54.856;26.318;2022-08-19T17:33:25;1002;;;24.6;100
45789;BME280;31492;54.856;26.318;2022-08-19T17:38:20;1002;;;24.4;100
45789;BME280;31492;54.856;26.318;2022-08-19T17:43:30;1002.1;;;24.3;100
45789;BME280;31492;54.856;26.318;2022-08-19T17:48:25;1002.1;;;24.3;100
45789;BME280;31492;54.856;26.318;2022-08-19T17:53:25;1002.1;;;24.3;100
45789;BME280;31492;54.856;26.318;2022-08-19T17:58:27;1002.1;;;24.2;100
45789;BME280;31492;54.856;26.318;2022-08-19T18:03:23;1002.1;;;24.1;100
45789;BME280;31492;54.856;26.318;2022-08-19T18:08:27;1002.2;;;24;100
45789;BME280;31492;54.856;26.318;2022-08-19T18:13:25;1002.2;;;23.8;100
45789;BME280;31492;54.856;26.318;2022-08-19T18:18:23;1002.3;;;23.6;100
45789;BME280;31492;54.856;26.318;2022-08-19T18:23:27;1002.3;;;23.6;100
45789;BME280;31492;54.856;26.318;2022-08-19T18:28:29;1002.4;;;23.6;100
45789;BME280;31492;54.856;26.318;2022-08-19T18:33:25;1002.4;;;23.5;100
45789;BME280;31492;54.856;26.318;2022-08-19T18:38:29;1002.4;;;23.5;100
45789;BME280;31492;54.856;26.318;2022-08-19T18:43:21;1002.5;;;23.3;100
45789;BME280;31492;54.856;26.318;2022-08-19T18:48:29;1002.4;;;23.2;100
45789;BME280;31492;54.856;26.318;2022-08-19T18:53:28;1002.4;;;23.2;100
45789;BME280;31492;54.856;26.318;2022-08-19T18:58:30;1002.4;;;23.1;100
45789;BME280;31492;54.856;26.318;2022-08-19T19:03:25;1002.4;;;23;100
45789;BME280;31492;54.856;26.318;2022-08-19T19:08:27;1002.4;;;22.8;100
45789;BME280;31492;54.856;26.318;2022-08-19T19:13:27;1002.4;;;22.7;100
45789;BME280;31492;54.856;26.318;2022-08-19T19:18:29;1002.4;;;22.7;100
45789;BME280;31492;54.856;26.318;2022-08-19T19:23:29;1002.4;;;22.7;100
45789;BME280;31492;54.856;26.318;2022-08-19T19:28:25;1002.3;;;22.6;100
45789;BME280;31492;54.856;26.318;2022-08-19T19:33:19;1002.3;;;22.5;100
45789;BME280;31492;54.856;26.318;2022-08-19T19:38:23;1002.2;;;22.4;100
45789;BME280;31492;54.856;26.318;2022-08-19T19:43:27;1002.2;;;22.3;100
45789;BME280;31492;54.856;26.318;2022-08-19T19:48:29;1002.2;;;22.3;100
45789;BME280;31492;54.856;26.318;2022-08-19T19:53:23;1002.2;;;22.3;100
45789;BME280;31492;54.856;26.318;2022-08-19T19:58:24;1002.2;;;22.3;100
45789;BME280;31492;54.856;26.318;2022-08-19T20:03:24;1002.1;;;22.3;100
45789;BME280;31492;54.856;26.318;2022-08-19T20:08:19;1002.1;;;22.3;100
45789;BME280;31492;54.856;26.318;2022-08-19T20:13:25;1002.2;;;22.2;100
45789;BME280;31492;54.856;26.318;2022-08-19T20:18:25;1002.2;;;22.1;100
45789;BME280;31492;54.856;26.318;2022-08-19T20:23:25;1002.2;;;21.9;100
45789;BME280;31492;54.856;26.318;2022-08-19T20:28:25;1002.2;;;21.7;100
45789;BME280;31492;54.856;26.318;2022-08-19T20:33:25;1002.2;;;21.5;100
45789;BME280;31492;54.856;26.318;2022-08-19T20:38:25;1002.3;;;21.4;100
45789;BME280;31492;54.856;26.318;2022-08-19T20:43:25;1002.4;;;21.3;100
45789;BME280;31492;54.856;26.318;2022-08-19T20:48:23;1002.4;;;21.3;100
45789;BME280;31492;54.856;26.318;2022-08-19T20:53:27;1002.5;;;21.2;100
45789;BME280;31492;54.856;26.318;2022-08-19T20:58:27;1002.5;;;21.2;100
45789;BME280;31492;54.856;26.318;2022-08-19T21:03:28;1002.5;;;21.1;100
45789;BME280;31492;54.856;26.318;2022-08-19T21:08:29;1002.5;;;20.9;100
45789;BME280;31492;54.856;26.318;2022-08-19T21:13:22;1002.5;;;20.9;100
45789;BME280;31492;54.856;26.318;2022-08-19T21:18:27;1002.4;;;21;100
45789;BME280;31492;54.856;26.318;2022-08-19T21:23:28;1002.3;;;21;100
45789;BME280;31492;54.856;26.318;2022-08-19T21:28:26;1002.4;;;20.9;100
45789;BME280;31492;54.856;26.318;2022-08-19T21:33:11;1002.4;;;20.8;100
45789;BME280;31492;54.856;26.318;2022-08-19T21:38:23;1002.3;;;20.8;100
45789;BME280;31492;54.856;26.318;2022-08-19T21:43:26;1002.4;;;20.7;100
45789;BME280;31492;54.856;26.318;2022-08-19T21:48:27;1002.4;;;20.5;100
45789;BME280;31492;54.856;26.318;2022-08-19T21:53:27;1002.3;;;20.5;100
45789;BME280;31492;54.856;26.318;2022-08-19T21:58:27;1002.3;;;20.4;100
45789;BME280;31492;54.856;26.318;2022-08-19T22:03:23;1002.2;;;20.3;100
45789;BME280;31492;54.856;26.318;2022-08-19T22:08:21;1002.3;;;20.2;100
45789;BME280;31492;54.856;26.318;2022-08-19T22:13:25;1002.3;;;20.1;100
45789;BME280;31492;54.856;26.318;2022-08-19T22:18:19;1002.3;;;20.1;100
